EGMC Airport Information

Runway Information
Runway 05 Length 6089 ft width 118 ft Elevation 49 ft Threshold 571 ft Heading 54
Runway 23 Length 6089 ft Width 118 ft Elevation 37 ft Threshold 479 ft Heading 234
Airport Frequencies
Type APP Name APP Frequency 130.775 MHZ
Type ATIS Name ATIS Frequency 121.8 MHZ
Type RDR Name RDR Frequency 130.775 MHZ
Type TWR Name TWR Frequency 127.725 MHZ
Airport Navaids
Airport Weather Information & NOTAM
ADDS - METARS form results

(1949 UTC 03 December 2022)
Data provider http://aviationweather.gov/metar/data/
 
METAR text: EGMC 031920Z 07010KT 9999 OVC028 06/01 Q1017
Conditions at: EGMC (SOUTHEND-ON-SEA , GB) observed 1920 UTC 03 December 2022
Temperature: 6.0°C (43°F)
Dewpoint: 1.0°C (34°F) [RH = 70%]
Pressure (altimeter): 30.03 inches Hg (1017.0 mb)
Winds: from the ENE (70 degrees) at 12 MPH (10 knots; 5.1 m/s)
Visibility: 6 or more miles (10+ km)
Ceiling: 2800 feet AGL
Clouds: overcast cloud deck at 2800 feet AGL
Weather: no significant weather observed at this time

METAR text: EGMC 031850Z 06010KT 9999 FEW024 BKN029 06/02 Q1018
Conditions at: EGMC (SOUTHEND-ON-SEA , GB) observed 1850 UTC 03 December 2022
Temperature: 6.0°C (43°F)
Dewpoint: 2.0°C (36°F) [RH = 75%]
Pressure (altimeter): 30.06 inches Hg (1018.0 mb)
Winds: from the ENE (60 degrees) at 12 MPH (10 knots; 5.1 m/s)
Visibility: 6 or more miles (10+ km)
Ceiling: 2900 feet AGL
Clouds: few clouds at 2400 feet AGL
broken clouds at 2900 feet AGL
Weather: no significant weather observed at this time

Forecast for: EGMC (SOUTHEND-ON-SEA , GB)
Text: TAF EGMC 031705Z 0318/0403 06010KT 9999 SCT030
Forecast period: 1800 UTC 03 December 2022 to 0300 UTC 04 December 2022
Forecast type: FROM: standard forecast or significant change
Winds: from the ENE (60 degrees) at 12 MPH (10 knots; 5.1 m/s)
Visibility: 6 or more miles (10+ km)
Ceiling: at least 12,000 feet AGL
Clouds: scattered clouds at 3000 feet AGL
Weather: no significant weather forecast for this period
Text: PROB30
Forecast period: 1800 UTC 03 December 2022 to 0000 UTC 04 December 2022
Forecast type: TEMPORARY: The following changes expected for less than half the time period
Visibility: missing
Ceiling: 1400 feet AGL
Clouds: broken clouds at 1400 feet AGL
Weather: no significant weather forecast for this period
Text: TEMPO 0318/0324 BKN014
Forecast period: 0000 to 0300 UTC 04 December 2022
Forecast type: TEMPORARY: The following changes expected for less than half the time period
Visibility: 4 miles (6 km)
Ceiling: 1200 feet AGL
Clouds: broken clouds at 1200 feet AGL
Weather: -RA -DZ  (light rain, light drizzle)
Text: TEMPO 0400/0403 6000 -RADZ BKN012
Forecast period: 0000 to 0300 UTC 04 December 2022
Forecast type: TEMPORARY: The following changes expected for less than half the time period
Visibility: 2.49 miles (4.01 km)
Ceiling: 700 feet AGL
Clouds: broken clouds at 700 feet AGL
Weather: RA DZ  (moderate rain, moderate drizzle)